MST,Max TemperatureF,Mean TemperatureF,Min TemperatureF,Max Dew PointF,MeanDew PointF,Min DewpointF,Max Humidity, Mean Humidity, Min Humidity, Max Sea Level PressureIn, Mean Sea Level PressureIn, Min Sea Level PressureIn, Max VisibilityMiles, Mean VisibilityMiles, Min VisibilityMiles, Max Wind SpeedMPH, Mean Wind SpeedMPH, Max Gust SpeedMPH,PrecipitationIn, CloudCover, Events, WindDirDegrees
2013-2-1,34,31,27,29,27,24,100,91,82,30.49,30.34,30.23,10,10,3,15,5,18,T,8,Snow,244
2013-2-2,31,26,21,27,24,21,100,89,78,30.60,30.50,30.37,10,7,0,9,2,12,0.00,8,Fog,20
2013-2-3,30,20,9,25,15,7,100,82,63,30.48,30.34,30.17,10,8,0,7,2,9,0.00,5,Fog,47
2013-2-4,30,28,25,27,26,23,100,96,92,30.29,30.19,30.11,10,5,1,8,4,10,0.00,8,,217
2013-2-5,38,30,22,28,26,21,92,78,64,30.20,30.07,29.95,10,9,5,8,2,9,T,3,,52
2013-2-6,28,21,13,25,20,10,100,89,78,30.29,30.07,29.90,10,5,0,8,2,10,0.00,6,Fog,329
2013-2-7,33,24,15,24,17,13,96,77,58,30.28,30.16,30.03,10,9,2,8,4,10,0.00,1,,53
2013-2-8,39,29,19,26,20,13,77,68,59,30.01,29.86,29.74,10,10,10,12,6,17,0.00,5,,50
2013-2-9,38,31,24,22,19,17,88,68,48,29.88,29.77,29.71,10,10,10,20,10,25,0.00,5,,27
2013-2-10,31,19,7,19,10,1,92,64,36,30.24,30.06,29.89,10,10,8,18,8,24,0.00,3,,21
2013-2-11,22,10,-2,8,0,-8,80,64,47,30.43,30.34,30.24,10,10,8,9,3,10,0.00,1,,50
2013-2-12,26,19,11,21,14,6,88,78,68,30.48,30.38,30.18,10,10,5,8,3,9,T,8,Snow,262
2013-2-13,31,28,24,27,24,21,92,87,81,30.37,30.26,30.14,10,10,8,14,4,21,T,8,Snow,261
2013-2-14,32,24,16,27,22,14,100,86,72,30.50,30.36,30.15,10,8,0,16,7,21,0.00,5,Fog,202
2013-2-15,33,23,13,25,18,11,96,84,72,30.62,30.51,30.40,10,8,0,10,4,14,0.00,5,Fog,86
2013-2-16,39,31,22,25,23,19,92,74,56,30.51,30.32,30.01,10,10,8,8,3,10,0.00,4,,84
2013-2-17,33,27,21,25,19,12,96,75,53,30.12,29.94,29.83,10,8,1,12,5,15,0.01,5,Snow,216
2013-2-18,31,22,13,20,16,8,92,78,63,30.23,30.16,30.08,10,10,10,10,5,12,0.00,3,,76
2013-2-19,32,22,12,27,18,7,92,71,49,30.01,29.82,29.69,10,8,2,10,5,13,T,6,Snow,50
2013-2-20,35,28,20,28,23,17,100,81,61,29.86,29.76,29.68,10,6,2,15,6,20,0.03,8,Snow,204
2013-2-21,27,23,18,25,20,16,100,82,63,30.08,29.94,29.78,10,7,2,14,7,16,0.02,7,Snow,195
2013-2-22,30,22,14,25,19,12,96,83,69,30.18,30.03,29.87,10,6,0,20,10,29,0.02,7,Fog-Snow,203
2013-2-23,28,22,16,27,21,9,92,74,55,30.10,29.78,29.65,10,4,0,25,11,33,0.22,8,Fog-Snow,208
2013-2-24,26,11,-4,14,3,-7,91,73,55,30.44,30.29,30.08,10,10,9,13,4,15,T,2,Snow,113
2013-2-25,26,18,9,23,18,7,96,80,63,30.38,30.09,29.96,10,5,1,10,4,14,0.11,8,Snow,121
2013-2-26,26,14,2,21,16,-1,100,87,73,30.51,30.23,30.02,10,10,6,13,5,15,0.00,5,,206
2013-2-27,27,14,0,16,8,-3,96,77,57,30.62,30.53,30.31,10,10,4,7,2,9,T,6,Snow,71
2013-2-28,31,22,13,25,18,9,100,77,53,30.59,30.52,30.43,10,7,2,7,3,9,0.04,7,Snow,49